createdAt,value
2023-02-16T00:04:31.338Z,-4.31
2023-02-16T00:09:54.794Z,-4.40
2023-02-16T00:14:57.422Z,-4.52
2023-02-16T00:20:00.336Z,-4.54
2023-02-16T00:25:02.530Z,-4.64
2023-02-16T00:30:21.264Z,-4.54
2023-02-16T00:35:25.448Z,-4.30
2023-02-16T00:40:27.772Z,-4.57
2023-02-16T00:45:30.540Z,-4.53
2023-02-16T00:50:34.652Z,-4.88
2023-02-16T00:55:37.036Z,-4.50
2023-02-16T01:00:45.018Z,-4.48
2023-02-16T01:05:47.879Z,-4.72
2023-02-16T01:11:08.246Z,-4.83
2023-02-16T01:16:17.204Z,-4.54
2023-02-16T01:21:19.747Z,-4.61
2023-02-16T01:26:22.198Z,-4.52
2023-02-16T01:31:24.437Z,-4.53
2023-02-16T01:36:37.357Z,-4.53
2023-02-16T01:42:02.880Z,-4.48
2023-02-16T01:47:24.411Z,-4.94
2023-02-16T01:52:34.899Z,-4.56
2023-02-16T01:58:05.241Z,-4.77
2023-02-16T02:03:30.494Z,-4.74
2023-02-16T02:08:55.833Z,-4.55
2023-02-16T02:14:13.477Z,-4.60
2023-02-16T02:19:16.503Z,-4.84
2023-02-16T02:24:51.231Z,-4.70
2023-02-16T02:30:09.253Z,-4.71
2023-02-16T02:35:38.847Z,-4.72
2023-02-16T02:41:07.412Z,-4.74
2023-02-16T02:46:26.903Z,-5.21
2023-02-16T02:51:29.284Z,-5.08
2023-02-16T02:56:55.510Z,-5.36
2023-02-16T03:01:59.997Z,-4.99
2023-02-16T03:07:02.964Z,-5.26
2023-02-16T03:12:24.519Z,-5.10
2023-02-16T03:17:52.238Z,-5.51
2023-02-16T03:23:12.896Z,-5.27
2023-02-16T03:28:35.169Z,-5.22
2023-02-16T03:33:37.536Z,-5.26
2023-02-16T03:38:40.044Z,-5.21
2023-02-16T03:43:42.246Z,-5.38
2023-02-16T03:48:44.439Z,-5.46
2023-02-16T03:53:46.661Z,-5.52
2023-02-16T03:58:48.885Z,-5.25
2023-02-16T04:03:51.179Z,-5.20
2023-02-16T04:08:53.427Z,-5.63
2023-02-16T04:13:55.690Z,-5.30
2023-02-16T04:18:57.898Z,-5.46
2023-02-16T04:24:00.125Z,-5.25
2023-02-16T04:29:02.367Z,-5.24
2023-02-16T04:34:05.700Z,-5.45
2023-02-16T04:39:07.908Z,-5.52
2023-02-16T04:44:10.242Z,-5.24
2023-02-16T04:49:12.563Z,-5.37
2023-02-16T04:54:15.043Z,-5.24
2023-02-16T04:59:17.257Z,-5.25
2023-02-16T05:04:19.553Z,-5.25
2023-02-16T05:09:21.840Z,-5.62
2023-02-16T05:14:47.208Z,-5.50
2023-02-16T05:19:58.118Z,-5.38
2023-02-16T05:25:01.502Z,-5.26
2023-02-16T05:30:04.314Z,-5.27
2023-02-16T05:35:07.006Z,-5.26
2023-02-16T05:40:11.161Z,-5.47
2023-02-16T05:45:13.428Z,-5.47
2023-02-16T05:50:15.729Z,-5.38
2023-02-16T05:55:18.037Z,-5.41
2023-02-16T06:00:20.483Z,-5.44
2023-02-16T06:05:22.756Z,-5.23
2023-02-16T06:10:24.972Z,-5.17
2023-02-16T06:15:27.165Z,-5.14
2023-02-16T06:20:29.413Z,-5.48
2023-02-16T06:25:31.672Z,-5.12
2023-02-16T06:30:36.488Z,-5.08
2023-02-16T06:35:38.946Z,-5.28
2023-02-16T06:40:41.225Z,-5.07
2023-02-16T06:45:43.527Z,-5.27
2023-02-16T06:50:45.722Z,-5.01
2023-02-16T06:55:50.486Z,-5.00
2023-02-16T07:00:55.545Z,-5.14
2023-02-16T07:06:00.189Z,-4.94
2023-02-16T07:11:03.597Z,-5.16
2023-02-16T07:16:07.551Z,-4.99
2023-02-16T07:21:09.754Z,-5.09
2023-02-16T07:26:12.177Z,-4.98
2023-02-16T07:31:16.194Z,-4.81
2023-02-16T07:36:18.459Z,-4.89
2023-02-16T07:41:20.902Z,-4.67
2023-02-16T07:46:23.113Z,-4.62
2023-02-16T07:51:27.059Z,-4.61
2023-02-16T07:56:31.402Z,-4.58
2023-02-16T08:01:34.498Z,-4.79
2023-02-16T08:06:36.773Z,-4.43
2023-02-16T08:11:39.383Z,-4.49
2023-02-16T08:16:42.045Z,-4.55
2023-02-16T08:21:49.526Z,-4.35
2023-02-16T08:26:55.063Z,-4.62
2023-02-16T08:31:59.713Z,-4.24
2023-02-16T08:37:02.515Z,-4.18
2023-02-16T08:42:05.481Z,-4.19
2023-02-16T08:47:09.666Z,-4.47
2023-02-16T08:52:12.991Z,-4.04
2023-02-16T08:57:16.103Z,-4.20
2023-02-16T09:02:18.383Z,-4.27
2023-02-16T09:07:23.241Z,-3.99
2023-02-16T09:12:25.822Z,-4.09
2023-02-16T09:17:29.244Z,-4.01
2023-02-16T09:22:31.918Z,-4.22
2023-02-16T09:27:35.000Z,-4.24
2023-02-16T09:32:37.215Z,-4.04
2023-02-16T09:37:39.388Z,-4.01
2023-02-16T09:42:44.996Z,-3.96
2023-02-16T09:47:49.360Z,-3.91
2023-02-16T09:53:08.917Z,-3.86
2023-02-16T09:58:18.997Z,-3.75
2023-02-16T10:03:39.898Z,-3.68
2023-02-16T10:08:46.000Z,-3.92
2023-02-16T10:13:54.360Z,-3.81
2023-02-16T10:18:57.183Z,-3.86
2023-02-16T10:24:04.005Z,-3.78
2023-02-16T10:29:23.556Z,-3.77
2023-02-16T10:34:31.708Z,-3.67
2023-02-16T10:39:38.939Z,-4.21
2023-02-16T10:44:46.758Z,-3.80
2023-02-16T10:49:49.810Z,-3.91
2023-02-16T10:54:52.274Z,-3.62
2023-02-16T10:59:56.079Z,-3.77
2023-02-16T11:04:59.227Z,-3.66
2023-02-16T11:10:19.600Z,-3.58
2023-02-16T11:15:27.191Z,-3.98
2023-02-16T11:20:35.477Z,-3.63
2023-02-16T11:25:38.246Z,-3.79
2023-02-16T11:30:41.773Z,-3.75
2023-02-16T11:35:45.212Z,-3.64
2023-02-16T11:40:51.842Z,-3.64
2023-02-16T11:46:16.932Z,-3.93
2023-02-16T11:51:39.293Z,-3.64
2023-02-16T11:56:41.641Z,-3.80
2023-02-16T12:02:02.778Z,-3.68
2023-02-16T12:07:15.661Z,-3.74
2023-02-16T12:12:36.545Z,-3.68
2023-02-16T12:18:04.506Z,-3.70
2023-02-16T12:23:29.212Z,-3.80
2023-02-16T12:28:51.326Z,-3.84
2023-02-16T12:34:28.821Z,-3.86
2023-02-16T12:39:59.033Z,-3.68
2023-02-16T12:45:09.904Z,-3.73
2023-02-16T12:50:31.763Z,-3.74
2023-02-16T12:55:33.885Z,-3.79
2023-02-16T13:00:53.615Z,-3.96
2023-02-16T13:06:18.325Z,-4.02
2023-02-16T13:11:48.942Z,-3.79
2023-02-16T13:16:58.203Z,-4.12
2023-02-16T13:22:13.063Z,-3.86
2023-02-16T13:27:24.556Z,-3.84
2023-02-16T13:32:45.770Z,-3.84
2023-02-16T13:38:09.918Z,-3.93
2023-02-16T13:43:20.635Z,-4.02
2023-02-16T13:48:55.205Z,-3.90
2023-02-16T13:54:00.459Z,-3.99
2023-02-16T13:59:35.173Z,-4.10
2023-02-16T14:04:37.371Z,-3.97
2023-02-16T14:09:39.787Z,-3.98
2023-02-16T14:14:41.950Z,-3.99
2023-02-16T14:19:53.250Z,-3.98
2023-02-16T14:24:57.905Z,-4.19
2023-02-16T14:30:01.867Z,-4.07
2023-02-16T14:35:14.033Z,-4.03
2023-02-16T14:40:36.352Z,-3.94
2023-02-16T14:45:44.909Z,-4.07
2023-02-16T14:51:29.151Z,-4.06
2023-02-16T14:56:55.833Z,-4.11
2023-02-16T15:01:58.426Z,-4.20
2023-02-16T15:07:03.588Z,-4.39
2023-02-16T15:12:24.103Z,-4.38
2023-02-16T15:17:35.832Z,-4.21
2023-02-16T15:22:44.952Z,-4.55
2023-02-16T15:28:01.555Z,-4.59
2023-02-16T15:33:07.093Z,-4.53
2023-02-16T15:38:21.452Z,-4.36
2023-02-16T15:43:44.373Z,-4.40
2023-02-16T15:48:46.971Z,-4.62
2023-02-16T15:53:53.335Z,-4.46
2023-02-16T15:59:01.964Z,-4.58
2023-02-16T16:04:20.027Z,-4.49
2023-02-16T16:09:28.949Z,-4.54
2023-02-16T16:14:34.226Z,-4.79
2023-02-16T16:19:38.506Z,-4.73
2023-02-16T16:24:41.118Z,-4.66
2023-02-16T16:29:45.722Z,-4.76
2023-02-16T16:34:48.170Z,-4.73
2023-02-16T16:40:24.108Z,-4.86
2023-02-16T16:45:39.450Z,-4.83
2023-02-16T16:50:42.787Z,-5.01
2023-02-16T16:55:45.041Z,-4.93
2023-02-16T17:00:47.498Z,-5.00
2023-02-16T17:05:49.636Z,-5.34
2023-02-16T17:10:52.274Z,-5.18
2023-02-16T17:15:57.932Z,-5.04
2023-02-16T17:21:00.197Z,-5.15
2023-02-16T17:26:02.973Z,-5.07
2023-02-16T17:31:15.534Z,-5.14
2023-02-16T17:36:21.670Z,-5.21
2023-02-16T17:41:26.365Z,-5.16
2023-02-16T17:46:31.579Z,-5.23
2023-02-16T17:51:36.600Z,-5.32
2023-02-16T17:56:42.108Z,-5.16
2023-02-16T18:01:45.370Z,-5.19
2023-02-16T18:06:47.934Z,-5.20
2023-02-16T18:11:50.998Z,-5.32
2023-02-16T18:16:53.593Z,-5.26
2023-02-16T18:21:56.183Z,-5.38
2023-02-16T18:26:59.449Z,-5.38
2023-02-16T18:32:03.321Z,-5.35
2023-02-16T18:37:05.525Z,-5.22
2023-02-16T18:42:07.968Z,-5.26
2023-02-16T18:47:10.342Z,-5.51
2023-02-16T18:52:15.428Z,-5.63
2023-02-16T18:57:17.847Z,-5.51
2023-02-16T19:02:21.242Z,-5.45
2023-02-16T19:07:23.561Z,-5.63
2023-02-16T19:12:25.938Z,-5.89
2023-02-16T19:17:28.150Z,-5.59
2023-02-16T19:22:30.321Z,-5.83
2023-02-16T19:27:32.889Z,-5.90
2023-02-16T19:32:35.296Z,-6.10
2023-02-16T19:37:37.734Z,-5.79
2023-02-16T19:42:40.090Z,-5.90
2023-02-16T19:47:42.768Z,-6.00
2023-02-16T19:52:45.982Z,-6.04
2023-02-16T19:57:48.266Z,-6.06
2023-02-16T20:02:53.803Z,-6.17
2023-02-16T20:07:56.133Z,-6.14
2023-02-16T20:12:58.824Z,-6.01
2023-02-16T20:18:01.248Z,-6.12
2023-02-16T20:23:03.533Z,-6.15
2023-02-16T20:28:05.811Z,-6.08
2023-02-16T20:33:08.216Z,-6.30
2023-02-16T20:38:10.460Z,-6.37
2023-02-16T20:43:13.982Z,-6.17
2023-02-16T20:48:16.726Z,-6.24
2023-02-16T20:53:18.962Z,-6.26
2023-02-16T20:58:21.250Z,-6.36
2023-02-16T21:03:24.214Z,-6.19
2023-02-16T21:08:29.218Z,-6.28
2023-02-16T21:13:31.522Z,-6.47
2023-02-16T21:18:34.259Z,-6.41
2023-02-16T21:23:36.551Z,-6.26
2023-02-16T21:28:39.136Z,-6.26
2023-02-16T21:33:41.428Z,-6.32
2023-02-16T21:38:44.255Z,-6.27
2023-02-16T21:43:46.467Z,-6.40
2023-02-16T21:48:49.950Z,-6.38
2023-02-16T21:53:53.556Z,-6.29
2023-02-16T21:58:55.856Z,-6.64
2023-02-16T22:03:59.815Z,-6.46
2023-02-16T22:09:05.438Z,-6.39
2023-02-16T22:14:07.615Z,-6.52
2023-02-16T22:19:13.854Z,-6.30
2023-02-16T22:24:18.212Z,-6.33
2023-02-16T22:29:20.511Z,-6.45
2023-02-16T22:34:22.920Z,-6.51
2023-02-16T22:39:25.116Z,-6.38
2023-02-16T22:44:27.397Z,-6.36
2023-02-16T22:49:29.718Z,-6.37
2023-02-16T22:54:31.987Z,-6.61
2023-02-16T22:59:34.435Z,-6.41
2023-02-16T23:04:36.617Z,-6.61
2023-02-16T23:09:38.901Z,-6.40
2023-02-16T23:14:41.213Z,-6.56
2023-02-16T23:19:43.743Z,-6.63
2023-02-16T23:25:05.910Z,-6.74
2023-02-16T23:30:08.459Z,-6.50
2023-02-16T23:35:10.943Z,-6.43
2023-02-16T23:40:13.397Z,-6.58
2023-02-16T23:45:15.693Z,-6.65
2023-02-16T23:50:18.020Z,-6.59
2023-02-16T23:55:20.248Z,-6.49
